Flight Track Log - Related Links

Times and Time Zones

All times are in EDT time to prevent confusion due to time zone crossing. See the AWE2492 flight status page for this flight to view local times or setup timezone preferences in your user account.

Time Position Orientation Groundspeed Altitude Reporting Facility
EDT Latitude Longitude Course Direction KTS MPH feet Rate Location/Type
Sun 08:35:22 PM 25.7117 -80.5118 169° South 285 328 7,000  Level FlightAware ADS-B (KEYW)
Sun 08:35:47 PM 25.6817 -80.4958 143° Southeast 281 323 7,000 136 Level FlightAware ADS-B (KEYW)
Sun 08:36:06 PM 25.6637 -80.4778 136° Southeast 276 318 7,100 800 Climbing FlightAware ADS-B (KEYW)
Sun 08:36:32 PM 25.6392 -80.4515 135° Southeast 286 329 7,600 1,756 Climbing FlightAware ADS-B (KEYW)
Sun 08:36:47 PM 25.6247 -80.4356 135° Southeast 290 334 8,300 2,739 Climbing FlightAware ADS-B (KEYW)
Sun 08:37:18 PM 25.5916 -80.4091 155° Southeast 298 343 9,700 2,053 Climbing FlightAware ADS-B (KEYW)
Sun 08:38:03 PM 25.5285 -80.3883 165° South 334 384 10,900 1,867 Climbing FlightAware ADS-B (KEYW)
Sun 08:38:48 PM 25.4575 -80.3667 164° South 359 413 12,500 2,351 Climbing FlightAware ADS-B (KEYW)
Sun 08:39:17 PM 25.4095 -80.3519 164° South 365 420 13,800 2,700 Climbing FlightAware ADS-B (KEYW)
Sun 08:39:48 PM 25.3591 -80.3364 164° South 373 429 15,200 1,737 Climbing FlightAware ADS-B (KEYW)
Sun 08:40:33 PM 25.2831 -80.3139 164° South 373 429 16,000 1,467 Climbing FlightAware ADS-B (KEYW)
Sun 08:41:18 PM 25.2070 -80.2913 164° South 374 430 17,400 2,200 Climbing FlightAware ADS-B (KEYW)
Sun 08:42:03 PM 25.1303 -80.2718 170° South 377 434 19,300 2,267 Climbing FlightAware ADS-B (KEYW)
Sun 08:42:48 PM 25.0521 -80.2820 208° Southwest 389 448 20,800 1,846 Climbing FlightAware ADS-B (KEYW)
Sun 08:43:34 PM 24.9863 -80.3373 223° Southwest 401 461 22,100 1,714 Climbing FlightAware ADS-B (KEYW)
Sun 08:44:19 PM 24.9345 -80.4123 241° Southwest 415 478 23,400 1,800 Climbing FlightAware ADS-B (KEYW)
Sun 08:45:04 PM 24.9011 -80.5010 250° West 424 488 24,800 1,733 Climbing FlightAware ADS-B (KEYW)
Sun 08:45:49 PM 24.8697 -80.5929 250° West 428 493 26,000 1,600 Climbing FlightAware ADS-B (KEYW)
Sun 08:46:34 PM 24.8389 -80.6845 250° West 435 501 27,200 1,400 Climbing FlightAware ADS-B (KEYW)
Sun 08:47:19 PM 24.8059 -80.7807 250° West 444 511 28,100 1,187 Climbing FlightAware ADS-B (KEYW)
Sun 08:48:05 PM 24.7728 -80.8768 250° West 454 522 29,000 1,200 Climbing FlightAware ADS-B (KEYW)
Sun 08:48:49 PM 24.7389 -80.9749 250° West 459 528 29,900 1,267 Climbing FlightAware ADS-B (KEYW)
Sun 08:49:35 PM 24.7047 -81.0735 250° West 462 532 30,900 1,385 Climbing FlightAware ADS-B (KEYW)
Sun 08:50:20 PM 24.6702 -81.1725 250° West 462 532 32,000 1,400 Climbing FlightAware ADS-B (KEYW)
Sun 08:51:05 PM 24.6355 -81.2720 250° West 461 531 33,000 1,267 Climbing FlightAware ADS-B (KEYW)
Sun 08:51:50 PM 24.6024 -81.3680 250° West 460 529 33,900 667 Climbing FlightAware ADS-B (KEYW)
Sun 08:52:35 PM 24.5678 -81.4672 249° West 454 522 34,000 67 Climbing FlightAware ADS-B (KEYW)
Sun 08:53:20 PM 24.5337 -81.5637 249° West 451 519 34,000  Level FlightAware ADS-B (KEYW)
Sun 08:54:06 PM 24.4994 -81.6601 249° West 448 516 34,000  Level FlightAware ADS-B (KEYW)
Sun 08:54:51 PM 24.4654 -81.7558 249° West 445 512 34,000  Level FlightAware ADS-B (KEYW)
Sun 08:55:36 PM 24.4319 -81.8503 249° West 445 512 34,000  Level FlightAware ADS-B (KEYW)
Sun 08:56:21 PM 24.3984 -81.9449 249° West 445 512 34,000  Level FlightAware ADS-B (KEYW)
Sun 08:57:06 PM 24.3644 -82.0405 249° West 446 513 34,000  Level FlightAware ADS-B (KEYW)
Sun 08:57:51 PM 24.3305 -82.1354 249° West 453 521 34,000  Level FlightAware ADS-B (KEYW)
Sun 08:58:36 PM 24.2958 -82.2324 249° West 456 525 34,000  Level FlightAware ADS-B (KEYW)
Sun 08:59:21 PM 24.2612 -82.3290 249° West 457 526 34,000  Level FlightAware ADS-B (KEYW)
Sun 09:00:06 PM 24.2269 -82.4244 249° West 455 524 34,000  Level FlightAware ADS-B (KEYW)
Sun 09:00:52 PM 24.1913 -82.5232 249° West 453 521 34,000  Level FlightAware ADS-B (KEYW)
Sun 09:01:37 PM 24.1571 -82.6178 249° West 452 520 34,000  Level FlightAware ADS-B (KEYW)
Sun 09:02:22 PM 24.1224 -82.7147 249° West 453 521 34,000  Level FlightAware ADS-B (KEYW)
Sun 09:03:07 PM 24.0879 -82.8096 249° West 451 519 34,000  Level FlightAware ADS-B (KEYW)
Sun 09:03:52 PM 24.0524 -82.9070 249° West 451 519 34,000  Level FlightAware ADS-B (KEYW)
Sun 09:04:37 PM 24.0176 -83.0026 249° West 451 519 34,000  Level FlightAware ADS-B (KEYW)
Sun 09:05:07 PM 23.9936 -83.0648 245° Southwest 450 518 34,000  Level FlightAware ADS-B (KEYW)
Sun 09:05:53 PM 23.9528 -83.1559 244° Southwest 450 518 34,000  Level FlightAware ADS-B (KEYW)
Sun 09:06:38 PM 23.9116 -83.2476 245° Southwest 450 518 34,000  Level FlightAware ADS-B (KEYW)
Sun 09:07:22 PM 23.8691 -83.3415 244° Southwest 450 518 34,000  Level FlightAware ADS-B (KEYW)
Sun 09:08:08 PM 23.8270 -83.4344 244° Southwest 451 519 34,000 67 Level FlightAware ADS-B (KEYW)
Sun 09:08:52 PM 23.7905 -83.5153 244° Southwest 449 517 34,100 876 Climbing FlightAware ADS-B (KEYW)
Sun 09:09:37 PM 23.7459 -83.6143 244° Southwest 443 510 35,300 1,253 Climbing FlightAware ADS-B (KEYW)
Sun 09:10:23 PM 23.7035 -83.7075 244° Southwest 445 512 36,000 457 Climbing FlightAware ADS-B (KEYW)
Sun 09:11:09 PM 23.6623 -83.7973 244° Southwest 447 514 36,000  Level FlightAware ADS-B (KEYW)
Sun 09:11:48 PM 23.6252 -83.8787 244° Southwest 448 516 36,000  Level FlightAware ADS-B (KEYW)
Sun 09:12:36 PM 23.5806 -83.9760 244° Southwest 449 517 36,000  Level FlightAware ADS-B (KEYW)
Sun 09:13:24 PM 23.5365 -84.0724 244° Southwest 449 517 36,000  Level FlightAware ADS-B (KEYW)
Sun 09:14:09 PM 23.4944 -84.1642 244° Southwest 452 520 36,000  Level FlightAware ADS-B (KEYW)
Sun 09:14:47 PM 23.4698 -84.2177 244° Southwest 452 520 36,000  Level FlightAware ADS-B (KEYW)
Sun 09:16:04 PM 23.3868 -84.3987 244° Southwest 452 520 36,000  Level FlightAware ADS-B (KEYW)
Sun 09:17:09 PM 23.3258 -84.5305 244° Southwest 452 520 36,000  Level FlightAware ADS-B (KEYW)
Sun 09:17:54 PM 23.2840 -84.6202 244° Southwest 452 520 36,000  Level FlightAware ADS-B (KEYW)
Sun 09:17:57 PM 23.2813 -84.6261 244° Southwest 452 520 36,000  Level FlightAware ADS-B (KEYW)
Sun 09:19:22 PM 23.2010 -84.7983 244° Southwest 457 526 36,000  Level FlightAware ADS-B (KEYW)
Sun 09:20:11 PM 23.1575 -84.8915 244° Southwest 458 527 36,000  Level FlightAware ADS-B (MMUN / CUN)
Sun 09:20:39 PM 23.1291 -84.9520 244° Southwest 458 527 36,000  Level FlightAware ADS-B (MMUN / CUN)
Sun 09:20:58 PM 23.1189 -84.9736 244° Southwest 459 528 36,000  Level FlightAware ADS-B (MMUN / CUN)
Sun 09:21:45 PM 23.0653 -85.0875 244° Southwest 461 531 36,000  Level FlightAware ADS-B (MMUN / CUN)
Sun 09:21:56 PM 23.0575 -85.1040 243° Southwest 462 532 36,000  Level FlightAware ADS-B (MMUN / CUN)
Sun 09:22:38 PM 23.0146 -85.1948 243° Southwest 464 534 36,000  Level FlightAware ADS-B (MMUN / CUN)
Sun 09:23:45 PM 22.9482 -85.3349 243° Southwest 462 532 36,000  Level FlightAware ADS-B (MMUN / CUN)
Sun 09:24:13 PM 22.9210 -85.3927 243° Southwest 460 529 36,000  Level FlightAware ADS-B (MMUN / CUN)
Sun 09:24:41 PM 22.8927 -85.4522 243° Southwest 459 528 36,000  Level FlightAware ADS-B (MMUN / CUN)
Sun 09:25:17 PM 22.8576 -85.5258 243° Southwest 457 526 36,000  Level FlightAware ADS-B (MMUN / CUN)
Sun 09:25:47 PM 22.8289 -85.5859 243° Southwest 456 525 36,000  Level FlightAware ADS-B (MMUN / CUN)
Sun 09:26:17 PM 22.7991 -85.6482 243° Southwest 457 526 36,000  Level FlightAware ADS-B (MMUN / CUN)
Sun 09:26:46 PM 22.7716 -85.7060 243° Southwest 457 526 36,000  Level FlightAware ADS-B (MMUN / CUN)
Sun 09:27:17 PM 22.7420 -85.7679 243° Southwest 458 527 36,000  Level FlightAware ADS-B (MMUN / CUN)
Sun 09:27:44 PM 22.7153 -85.8239 243° Southwest 460 529 36,000 -321 Level FlightAware ADS-B (MMUN / CUN)
Sun 09:28:13 PM 22.6865 -85.8843 243° Southwest 461 531 35,700 -941 Descending FlightAware ADS-B (MMUN / CUN)
Sun 09:28:35 PM 22.6658 -85.9213 233° Southwest 456 525 35,200 -1,688 Descending FlightAware ADS-B (MMUN / CUN)
Sun 09:28:45 PM 22.6462 -85.9424 221° Southwest 453 521 34,800 -2,438 Descending FlightAware ADS-B (MMUN / CUN)
Sun 09:29:07 PM 22.6131 -85.9646 204° Southwest 447 514 33,900 -2,909 Descending FlightAware ADS-B (MMUN / CUN)
Sun 09:29:51 PM 22.5313 -85.9968 200° South 456 525 31,600 -2,733 Descending FlightAware ADS-B (MMUN / CUN)
Sun 09:30:37 PM 22.4318 -86.0360 201° Southwest 443 510 29,800 -2,240 Descending FlightAware ADS-B (MMUN / CUN)
Sun 09:31:06 PM 22.3762 -86.0579 201° Southwest 431 496 28,800 -1,932 Descending FlightAware ADS-B (MMUN / CUN)
Sun 09:31:36 PM 22.3236 -86.0787 201° Southwest 422 486 27,900 -2,105 Descending FlightAware ADS-B (MMUN / CUN)
Sun 09:32:03 PM 22.2697 -86.0999 201° Southwest 414 476 26,800 -2,226 Descending FlightAware ADS-B (MMUN / CUN)
Sun 09:32:38 PM 22.2101 -86.1234 201° Southwest 410 472 25,600 -2,237 Descending FlightAware ADS-B (MMUN / CUN)
Sun 09:33:02 PM 22.1660 -86.1408 201° Southwest 404 465 24,600 -2,291 Descending FlightAware ADS-B (MMUN / CUN)
Sun 09:33:33 PM 22.1125 -86.1619 201° Southwest 400 460 23,500 -2,123 Descending FlightAware ADS-B (MMUN / CUN)
Sun 09:34:07 PM 22.0530 -86.1852 201° Southwest 393 452 22,300 -2,095 Descending FlightAware ADS-B (MMUN / CUN)
Sun 09:34:36 PM 22.0037 -86.2044 201° Southwest 389 448 21,300 -2,100 Descending FlightAware ADS-B (MMUN / CUN)
Sun 09:35:07 PM 21.9515 -86.2248 201° Southwest 385 443 20,200 -2,237 Descending FlightAware ADS-B (MMUN / CUN)
Sun 09:35:35 PM 21.9060 -86.2493 212° Southwest 385 443 19,100 -2,105 Descending FlightAware ADS-B (MMUN / CUN)
Sun 09:36:04 PM 21.8636 -86.2789 214° Southwest 378 435 18,200 -1,839 Descending FlightAware ADS-B (MMUN / CUN)
Sun 09:36:37 PM 21.8155 -86.3126 214° Southwest 368 423 17,200 -1,810 Descending FlightAware ADS-B (MMUN / CUN)
Sun 09:37:07 PM 21.7725 -86.3428 214° Southwest 362 417 16,300 -2,000 Descending FlightAware ADS-B (MMUN / CUN)
Sun 09:37:37 PM 21.7299 -86.3724 213° Southwest 360 414 15,200 -2,105 Descending FlightAware ADS-B (MMUN / CUN)
Sun 09:38:04 PM 21.6956 -86.4017 227° Southwest 360 414 14,300 -2,000 Descending FlightAware ADS-B (MMUN / CUN)
Sun 09:38:31 PM 21.6655 -86.4386 229° Southwest 356 410 13,400 -1,966 Descending FlightAware ADS-B (MMUN / CUN)
Sun 09:39:02 PM 21.6330 -86.4787 229° Southwest 348 400 12,400 -1,875 Descending FlightAware ADS-B (MMUN / CUN)
Sun 09:39:35 PM 21.5979 -86.5216 229° Southwest 335 386 11,400 -1,406 Descending FlightAware ADS-B (MMUN / CUN)
Sun 09:40:06 PM 21.5671 -86.5594 230° Southwest 310 357 10,900 -1,138 Descending FlightAware ADS-B (MMUN / CUN)
Sun 09:40:33 PM 21.5421 -86.5902 230° Southwest 297 342 10,300 -1,500 Descending FlightAware ADS-B (MMUN / CUN)
Sun 09:40:50 PM 21.5277 -86.6080 230° Southwest 296 341 9,800 -1,875 Descending FlightAware ADS-B (MMUN / CUN)
Sun 09:41:05 PM 21.5138 -86.6252 229° Southwest 295 339 9,300 -1,862 Descending FlightAware ADS-B (MMUN / CUN)
Sun 09:41:19 PM 21.5017 -86.6400 229° Southwest 294 338 8,900 -1,862 Descending FlightAware ADS-B (MMUN / CUN)
Sun 09:41:34 PM 21.4882 -86.6565 229° Southwest 294 338 8,400 -1,800 Descending FlightAware ADS-B (MMUN / CUN)
Sun 09:41:49 PM 21.4739 -86.6742 230° Southwest 294 338 8,000 -1,500 Descending FlightAware ADS-B (MMUN / CUN)
Sun 09:42:06 PM 21.4588 -86.6929 230° Southwest 291 335 7,600 -1,448 Descending FlightAware ADS-B (MMUN / CUN)
Sun 09:42:18 PM 21.4486 -86.7054 229° Southwest 290 334 7,300 -1,455 Descending FlightAware ADS-B (MMUN / CUN)
Sun 09:42:39 PM 21.4305 -86.7274 230° Southwest 288 331 6,800 -1,459 Descending FlightAware ADS-B (MMUN / CUN)
Sun 09:42:55 PM 21.4160 -86.7454 230° Southwest 285 328 6,400 -1,412 Descending FlightAware ADS-B (MMUN / CUN)
Sun 09:43:13 PM 21.4010 -86.7641 230° Southwest 285 328 6,000 -1,459 Descending FlightAware ADS-B (MMUN / CUN)
Sun 09:43:32 PM 21.3848 -86.7843 230° Southwest 283 326 5,500 -1,500 Descending FlightAware ADS-B (MMUN / CUN)
Sun 09:43:49 PM 21.3699 -86.8030 230° Southwest 282 325 5,100 -1,371 Descending FlightAware ADS-B (MMUN / CUN)
Sun 09:44:07 PM 21.3549 -86.8218 230° Southwest 280 322 4,700 -1,200 Descending FlightAware ADS-B (MMUN / CUN)
Sun 09:44:19 PM 21.3445 -86.8349 230° Southwest 280 322 4,500 -1,385 Descending FlightAware ADS-B (MMUN / CUN)
Sun 09:44:33 PM 21.3325 -86.8501 230° Southwest 278 320 4,100 -1,412 Descending FlightAware ADS-B (MMUN / CUN)
Sun 09:44:53 PM 21.3162 -86.8710 231° Southwest 274 315 3,700 -1,350 Descending FlightAware ADS-B (MMUN / CUN)
Sun 09:45:13 PM 21.3004 -86.8911 231° Southwest 274 315 3,200 -1,455 Descending FlightAware ADS-B (MMUN / CUN)
Sun 09:45:26 PM 21.2898 -86.9049 231° Southwest 274 315 2,900 -1,333 Descending FlightAware ADS-B (MMUN / CUN)
Sun 09:45:40 PM 21.2780 -86.9202 231° Southwest 273 314 2,600 -1,286 Descending FlightAware ADS-B (MMUN / CUN)
Sun 09:45:54 PM 21.2667 -86.9347 231° Southwest 269 310 2,300 -857 Descending FlightAware ADS-B (MMUN / CUN)
Sun 09:46:08 PM 21.2557 -86.9490 231° Southwest 261 300 2,200 -400 Descending FlightAware ADS-B (MMUN / CUN)
Sun 09:46:24 PM 21.2437 -86.9644 231° Southwest 252 290 2,100 -364 Descending FlightAware ADS-B (MMUN / CUN)
Sun 09:46:41 PM 21.2313 -86.9806 231° Southwest 241 277 2,000 -171 Descending FlightAware ADS-B (MMUN / CUN)
Sun 09:46:59 PM 21.2187 -86.9964 228° Southwest 230 265 2,000  Level FlightAware ADS-B (MMUN / CUN)
Sun 09:47:05 PM 21.2137 -87.0005 214° Southwest 227 261 2,000  Level FlightAware ADS-B (MMUN / CUN)
Sun 09:47:12 PM 21.2072 -87.0037 205° Southwest 224 258 2,000  Level FlightAware ADS-B (MMUN / CUN)
Sun 09:47:31 PM 21.1894 -87.0114 202° Southwest 218 251 2,000  Level FlightAware ADS-B (MMUN / CUN)
Sun 09:47:51 PM 21.1700 -87.0195 200° South 216 249 2,000  Level FlightAware ADS-B (MMUN / CUN)
Sun 09:47:59 PM 21.1625 -87.0206 182° South 213 245 2,000  Level FlightAware ADS-B (MMUN / CUN)
Sun 09:48:07 PM 21.1552 -87.0198 172° South 211 243 2,000  Level FlightAware ADS-B (MMUN / CUN)
Sun 09:48:25 PM 21.1368 -87.0164 167° South 206 237 2,000  Level FlightAware ADS-B (MMUN / CUN)
Sun 09:48:39 PM 21.1244 -87.0129 158° South 187 215 2,000  Level FlightAware ADS-B (MMUN / CUN)
Sun 09:48:48 PM 21.1190 -87.0084 136° Southeast 178 205 2,000  Level FlightAware ADS-B (MMUN / CUN)
Sun 09:48:56 PM 21.1147 -87.0023 124° Southeast 174 200 2,000  Level FlightAware ADS-B (MMUN / CUN)
Sun 09:49:13 PM 21.1072 -86.9902 123° Southeast 171 197 2,000 -364 Level FlightAware ADS-B (MMUN / CUN)
Sun 09:49:29 PM 21.1006 -86.9795 123° Southeast 169 194 1,800 -750 Descending FlightAware ADS-B (MMUN / CUN)
Sun 09:49:45 PM 21.0936 -86.9683 123° Southeast 161 185 1,600 -800 Descending FlightAware ADS-B (MMUN / CUN)
Sun 09:49:59 PM 21.0878 -86.9589 123° Southeast 152 175 1,400 -828 Descending FlightAware ADS-B (MMUN / CUN)
Sun 09:50:14 PM 21.0822 -86.9500 124° Southeast 148 170 1,200 -750 Descending FlightAware ADS-B (MMUN / CUN)
Sun 09:50:31 PM 21.0758 -86.9398 123° Southeast 148 170 1,000 -750 Descending FlightAware ADS-B (MMUN / CUN)
Sun 09:50:46 PM 21.0700 -86.9305 123° Southeast 148 170 800 -600 Descending FlightAware ADS-B (MMUN / CUN)
Sun 09:51:01 PM 21.0645 -86.9217 124° Southeast 148 170 700 -706 Descending FlightAware ADS-B (MMUN / CUN)
Sun 09:51:20 PM 21.0572 -86.9099 123° Southeast 146 168 400 -769 Descending FlightAware ADS-B (MMUN / CUN)
Sun 09:51:40 PM 21.0495 -86.8977 123° Southeast 147 169 200 -600 Descending FlightAware ADS-B (MMUN / CUN)

Login

Don't have an account? Register now (free) for customized features, flight alerts, and more!